Time;durP1;ratioP1;P1;durP2;ratioP2;P2;SDS_P1;SDS_P2;PMS_P1;PMS_P2;Temp;Humidity;BMP_temperature;BMP_pressure;BME280_temperature;BME280_humidity;BME280_pressure;Samples;Min_cycle;Max_cycle;Signal;HPM_P1;HPM_P2
2023/04/04 00:01:30;;;;;;;5.60;2.80;;;;;;;-0.12;69.45;101623.70;105360;1261;97908;-78
2023/04/04 00:04:16;;;;;;;5.50;2.90;;;;;;;-0.15;69.67;101622.96;105361;1260;98537;-76
2023/04/04 00:07:02;;;;;;;6.30;3.10;;;;;;;-0.16;69.61;101620.23;105282;1257;101429;-75
2023/04/04 00:09:47;;;;;;;6.40;2.80;;;;;;;-0.15;69.73;101616.65;105333;1260;100319;-78
2023/04/04 00:12:33;;;;;;;6.20;3.00;;;;;;;-0.14;69.90;101612.75;105357;1257;98213;-77
2023/04/04 00:15:18;;;;;;;6.10;3.10;;;;;;;-0.16;69.83;101608.63;105433;1254;98630;-76
2023/04/04 00:18:04;;;;;;;5.40;3.10;;;;;;;-0.18;69.98;101604.75;105440;1258;98530;-78
2023/04/04 00:20:50;;;;;;;7.20;3.20;;;;;;;-0.19;69.92;101605.33;105500;1257;101404;-76
2023/04/04 00:23:35;;;;;;;5.60;2.70;;;;;;;-0.22;70.00;101603.60;105371;1258;100876;-76
2023/04/04 00:26:21;;;;;;;7.90;2.80;;;;;;;-0.24;70.15;101601.98;105526;1267;98330;-77
2023/04/04 00:29:07;;;;;;;9.80;3.40;;;;;;;-0.27;70.23;101599.88;105424;1258;97848;-76
2023/04/04 00:31:53;;;;;;;8.30;3.40;;;;;;;-0.31;70.55;101597.65;105549;1260;98471;-76
2023/04/04 00:34:38;;;;;;;9.10;4.20;;;;;;;-0.35;70.66;101596.13;105437;1254;101348;-77
2023/04/04 00:37:24;;;;;;;7.30;3.50;;;;;;;-0.39;70.59;101593.40;105265;1258;99774;-76
2023/04/04 00:40:10;;;;;;;7.70;3.70;;;;;;;-0.40;70.84;101589.61;105353;1254;99308;-76
2023/04/04 00:42:56;;;;;;;6.60;4.00;;;;;;;-0.43;70.84;101583.46;105334;1254;98518;-76
2023/04/04 00:45:42;;;;;;;8.40;3.60;;;;;;;-0.49;71.06;101582.10;105404;1254;97855;-76
2023/04/04 00:48:28;;;;;;;8.70;3.40;;;;;;;-0.55;71.29;101577.38;105376;1254;101498;-76
2023/04/04 00:51:14;;;;;;;7.50;2.90;;;;;;;-0.60;71.49;101572.28;105277;1253;100052;-76
2023/04/04 00:54:01;;;;;;;10.20;4.60;;;;;;;-0.64;71.68;101569.70;105228;1257;98948;-76
2023/04/04 00:56:46;;;;;;;9.60;3.70;;;;;;;-0.67;71.74;101571.10;105337;1254;97938;-76
2023/04/04 00:59:32;;;;;;;8.00;3.10;;;;;;;-0.70;71.82;101575.52;105392;1254;97976;-77
2023/04/04 01:02:18;;;;;;;8.40;3.60;;;;;;;-0.74;72.10;101573.61;105335;1260;102669;-76
2023/04/04 01:05:03;;;;;;;9.70;4.00;;;;;;;-0.77;72.18;101575.22;105363;1261;98987;-76
2023/04/04 01:07:49;;;;;;;9.60;3.50;;;;;;;-0.82;72.32;101569.14;105289;1258;98008;-76
2023/04/04 01:10:36;;;;;;;6.70;3.00;;;;;;;-0.83;72.42;101566.45;105303;1254;99206;-77
2023/04/04 01:13:21;;;;;;;9.40;4.40;;;;;;;-0.85;72.58;101562.34;106330;1254;98379;-77
2023/04/04 01:16:07;;;;;;;8.90;3.10;;;;;;;-0.86;72.81;101560.83;105405;1257;102717;-76
2023/04/04 01:18:55;;;;;;;9.50;4.40;;;;;;;-0.88;72.86;101550.80;105360;1259;100395;-75
2023/04/04 01:21:44;;;;;;;6.80;3.70;;;;;;;-0.90;73.06;101550.36;105253;1254;97909;-76
2023/04/04 01:24:32;;;;;;;17.00;4.10;;;;;;;-0.91;73.13;101543.94;105325;1260;98479;-76
2023/04/04 01:27:19;;;;;;;9.10;2.90;;;;;;;-0.91;73.26;101538.32;105369;1254;98574;-76
2023/04/04 01:30:14;;;;;;;8.50;3.10;;;;;;;-0.92;73.36;101535.59;105470;1254;102245;-75
2023/04/04 01:33:13;;;;;;;7.10;3.40;;;;;;;-0.94;73.49;101533.25;105301;1259;100141;-77
2023/04/04 01:36:20;;;;;;;5.50;2.50;;;;;;;-0.94;73.62;101540.13;105358;1258;98977;-76
2023/04/04 01:39:21;;;;;;;6.30;3.40;;;;;;;-0.99;73.74;101543.55;105384;1257;98014;-76
2023/04/04 01:42:08;;;;;;;11.40;3.40;;;;;;;-1.04;73.79;101538.42;105206;1257;97982;-77
2023/04/04 01:44:55;;;;;;;4.50;2.90;;;;;;;-1.08;74.04;101540.77;105294;1267;102747;-77
2023/04/04 01:47:42;;;;;;;9.40;3.90;;;;;;;-1.11;74.19;101541.33;105505;1257;99206;-76
2023/04/04 01:50:33;;;;;;;;;;;;;;;-1.13;74.23;101544.55;105446;1258;98847;-77
2023/04/04 01:53:18;;;;;;;6.20;2.70;;;;;;;-1.15;74.33;101543.95;105373;1258;97951;-77
2023/04/04 01:56:04;;;;;;;7.50;3.40;;;;;;;-1.17;74.36;101543.61;105240;1258;98480;-77
2023/04/04 01:58:52;;;;;;;13.30;4.00;;;;;;;-1.20;74.52;101542.18;105342;1257;101357;-76
2023/04/04 02:01:38;;;;;;;8.40;3.40;;;;;;;-1.20;74.60;101541.84;105369;1260;100502;-77
2023/04/04 02:04:24;;;;;;;18.60;3.40;;;;;;;-1.21;74.64;101538.88;105241;1254;98060;-76
2023/04/04 02:07:10;;;;;;;6.20;3.40;;;;;;;-1.22;74.79;101536.69;105413;1254;98487;-76
2023/04/04 02:09:56;;;;;;;7.60;3.20;;;;;;;-1.23;74.94;101536.93;105461;1256;97983;-77
2023/04/04 02:12:42;;;;;;;4.80;2.60;;;;;;;-1.24;74.89;101533.48;105317;1257;101278;-77
2023/04/04 02:15:27;;;;;;;8.30;3.30;;;;;;;-1.26;74.95;101535.02;105274;1254;99253;-76
2023/04/04 02:18:14;;;;;;;7.10;3.20;;;;;;;-1.28;75.05;101534.39;105619;1257;97999;-77
2023/04/04 02:20:59;;;;;;;8.40;3.20;;;;;;;-1.28;75.08;101536.34;105276;1260;98462;-77
2023/04/04 02:23:45;;;;;;;6.90;3.10;;;;;;;-1.29;75.12;101533.63;105365;1257;98481;-77
2023/04/04 02:26:30;;;;;;;6.10;2.60;;;;;;;-1.31;75.16;101528.29;105256;1260;102014;-78
2023/04/04 02:29:18;;;;;;;4.70;2.70;;;;;;;-1.34;75.25;101528.27;105368;1259;99085;-76
2023/04/04 02:32:03;;;;;;;6.60;3.50;;;;;;;-1.36;75.33;101528.90;105448;1258;97937;-76
2023/04/04 02:34:50;;;;;;;7.40;2.90;;;;;;;-1.37;75.37;101528.48;105445;1255;98577;-76
2023/04/04 02:37:35;;;;;;;4.80;2.80;;;;;;;-1.40;75.44;101529.16;105706;1256;98556;-76
2023/04/04 02:40:21;;;;;;;10.20;2.90;;;;;;;-1.42;75.59;101527.86;105485;1254;102545;-78
2023/04/04 02:43:06;;;;;;;9.90;3.50;;;;;;;-1.43;75.63;101528.61;105424;1254;99235;-77
2023/04/04 02:45:53;;;;;;;3.60;2.40;;;;;;;-1.45;75.75;101529.14;105509;1257;98522;-76
2023/04/04 02:48:41;;;;;;;4.80;2.80;;;;;;;-1.47;75.85;101531.66;105313;1254;97969;-77
2023/04/04 02:51:26;;;;;;;8.40;3.20;;;;;;;-1.47;75.96;101534.83;105300;1254;97969;-76
2023/04/04 02:54:14;;;;;;;9.60;3.60;;;;;;;-1.49;76.14;101537.02;105215;1259;101385;-76
2023/04/04 02:57:03;;;;;;;8.30;3.00;;;;;;;-1.51;76.16;101535.23;105216;1257;100302;-77
2023/04/04 02:59:48;;;;;;;6.80;3.20;;;;;;;-1.52;76.31;101534.45;105320;1260;98081;-77
2023/04/04 03:02:34;;;;;;;6.40;2.70;;;;;;;-1.53;76.33;101536.07;105345;1257;97894;-78
2023/04/04 03:05:20;;;;;;;6.10;3.10;;;;;;;-1.53;76.36;101538.14;105270;1259;98480;-77
2023/04/04 03:08:05;;;;;;;9.90;3.50;;;;;;;-1.52;76.38;101538.77;105583;1257;103126;-77
2023/04/04 03:10:51;;;;;;;10.70;2.50;;;;;;;-1.52;76.36;101537.91;105379;1259;100338;-77
2023/04/04 03:13:36;;;;;;;4.50;2.30;;;;;;;-1.52;76.52;101539.48;105283;1255;98077;-76
2023/04/04 03:16:23;;;;;;;5.50;3.00;;;;;;;-1.52;76.56;101544.38;105303;1257;97891;-76
2023/04/04 03:19:09;;;;;;;13.00;4.90;;;;;;;-1.52;76.64;101544.73;105288;1257;99333;-77
2023/04/04 03:21:55;;;;;;;5.30;3.30;;;;;;;-1.52;76.69;101544.40;105392;1255;101362;-77
2023/04/04 03:24:40;;;;;;;6.50;2.90;;;;;;;-1.54;76.74;101542.44;105293;1257;99062;-77
2023/04/04 03:27:26;;;;;;;9.00;3.20;;;;;;;-1.56;76.78;101540.57;105346;1258;98949;-76
2023/04/04 03:30:12;;;;;;;7.50;3.10;;;;;;;-1.55;76.93;101537.58;105235;1257;97949;-76
2023/04/04 03:32:58;;;;;;;10.70;3.50;;;;;;;-1.55;76.95;101537.20;105250;1257;99665;-76
2023/04/04 03:35:44;;;;;;;5.80;2.60;;;;;;;-1.54;77.09;101539.44;105270;1257;102615;-77
2023/04/04 03:38:30;;;;;;;9.00;3.50;;;;;;;-1.52;77.04;101539.70;105310;1259;100054;-77
2023/04/04 03:41:15;;;;;;;6.90;3.00;;;;;;;-1.53;77.12;101540.77;105318;1253;97977;-77
2023/04/04 03:44:03;;;;;;;5.10;2.80;;;;;;;-1.51;77.16;101539.09;105365;1257;97851;-77
2023/04/04 03:46:49;;;;;;;6.30;3.20;;;;;;;-1.47;77.15;101543.95;105316;1257;97924;-76
2023/04/04 03:49:35;;;;;;;5.90;3.30;;;;;;;-1.45;77.20;101539.45;105522;1258;101329;-76
2023/04/04 03:52:20;;;;;;;7.00;3.70;;;;;;;-1.42;77.14;101539.46;105396;1257;99093;-77
2023/04/04 03:55:07;;;;;;;6.30;3.20;;;;;;;-1.41;77.09;101538.67;105152;1255;98083;-76
2023/04/04 03:57:52;;;;;;;11.40;3.30;;;;;;;-1.41;76.95;101540.05;105322;1255;97899;-76
2023/04/04 04:00:38;;;;;;;9.80;3.20;;;;;;;-1.38;76.93;101543.94;105283;1253;98568;-77
2023/04/04 04:03:24;;;;;;;5.10;3.20;;;;;;;-1.36;76.94;101542.43;105436;1257;102625;-77
2023/04/04 04:06:09;;;;;;;3.60;2.60;;;;;;;-1.37;76.83;101539.67;105298;1260;99078;-76
2023/04/04 04:08:55;;;;;;;6.10;3.10;;;;;;;-1.39;76.79;101539.11;105347;1259;97977;-76
2023/04/04 04:11:41;;;;;;;7.70;4.00;;;;;;;-1.43;76.87;101536.18;105210;1260;97947;-76
2023/04/04 04:14:26;;;;;;;10.30;3.90;;;;;;;-1.46;77.01;101534.95;105311;1257;98460;-77
2023/04/04 04:17:12;;;;;;;5.70;2.80;;;;;;;-1.48;77.13;101532.10;105270;1258;101353;-76
2023/04/04 04:19:57;;;;;;;8.20;3.00;;;;;;;-1.49;77.14;101531.77;105266;1256;99082;-76
2023/04/04 04:22:46;;;;;;;8.60;3.20;;;;;;;-1.50;77.24;101531.48;105324;1253;97982;-75
2023/04/04 04:25:32;;;;;;;5.10;3.10;;;;;;;-1.49;77.38;101534.24;105131;1253;97983;-77
2023/04/04 04:28:29;;;;;;;12.30;3.40;;;;;;;-1.50;77.51;101530.26;105322;1257;98423;-76
2023/04/04 04:31:15;;;;;;;9.40;3.30;;;;;;;-1.48;77.47;101530.00;105117;1260;101328;-76
2023/04/04 04:34:06;;;;;;;9.30;4.10;;;;;;;-1.48;77.59;101530.66;105393;1256;99789;-77
2023/04/04 04:36:52;;;;;;;9.40;3.40;;;;;;;-1.46;77.73;101526.39;105304;1257;97957;-76
2023/04/04 04:39:54;;;;;;;5.70;2.50;;;;;;;-1.45;77.72;101529.63;105248;1260;97953;-78
2023/04/04 04:42:57;;;;;;;10.00;3.20;;;;;;;-1.43;77.71;101531.44;105491;1255;97933;-78
2023/04/04 04:45:43;;;;;;;7.20;3.20;;;;;;;-1.41;77.80;101527.30;105604;1258;102756;-78
2023/04/04 04:48:28;;;;;;;7.20;3.00;;;;;;;-1.36;77.87;101528.05;105625;1255;99235;-78
2023/04/04 04:51:15;;;;;;;4.90;3.20;;;;;;;-1.33;77.88;101527.03;105649;1260;98597;-78
2023/04/04 04:54:05;;;;;;;9.00;3.00;;;;;;;-1.33;77.83;101526.50;105736;1259;97901;-78
2023/04/04 04:56:52;;;;;;;5.10;2.50;;;;;;;-1.32;77.86;101528.52;105608;1260;97878;-76
2023/04/04 04:59:40;;;;;;;7.90;3.40;;;;;;;-1.30;77.86;101530.15;105602;1254;102625;-77
2023/04/04 05:02:26;;;;;;;8.40;3.30;;;;;;;-1.29;77.92;101529.92;105418;1260;100269;-76
2023/04/04 05:05:12;;;;;;;6.10;3.00;;;;;;;-1.26;77.99;101527.45;105480;1254;97907;-76
2023/04/04 05:08:03;;;;;;;4.20;2.70;;;;;;;-1.23;78.08;101529.72;105489;1255;97961;-77
2023/04/04 05:10:49;;;;;;;7.30;3.10;;;;;;;-1.21;78.06;101530.66;105514;1259;98041;-75
2023/04/04 05:13:36;;;;;;;9.10;3.00;;;;;;;-1.21;78.03;101529.27;105515;1257;101299;-77
2023/04/04 05:16:21;;;;;;;12.10;3.80;;;;;;;-1.20;78.34;101526.20;107056;1254;99935;-77
2023/04/04 05:19:09;;;;;;;7.00;3.20;;;;;;;-1.17;78.45;101528.34;105217;1260;98052;-76
2023/04/04 05:21:59;;;;;;;8.70;3.00;;;;;;;-1.16;78.43;101528.77;105295;1257;97959;-77
2023/04/04 05:24:50;;;;;;;;;;;;;;;-1.14;78.45;101530.05;105153;1255;98042;-76
2023/04/04 05:27:39;;;;;;;6.50;2.70;;;;;;;-1.14;78.57;101531.65;105184;1270;101457;-79
2023/04/04 05:30:25;;;;;;;3.90;2.40;;;;;;;-1.14;78.64;101535.48;105269;1255;100609;-76
2023/04/04 05:33:19;;;;;;;8.50;2.90;;;;;;;-1.12;78.50;101540.13;105279;1257;97993;-78
2023/04/04 05:36:11;;;;;;;6.60;2.70;;;;;;;-1.09;78.44;101538.88;105427;1256;98047;-76
2023/04/04 05:39:03;;;;;;;8.90;2.80;;;;;;;-1.06;78.43;101537.83;105477;1257;98874;-77
2023/04/04 05:41:50;;;;;;;4.90;3.00;;;;;;;-1.05;78.47;101536.20;105549;1256;101885;-76
2023/04/04 05:44:36;;;;;;;6.20;3.00;;;;;;;-1.03;78.49;101535.70;105442;1257;99275;-77
2023/04/04 05:47:23;;;;;;;6.50;3.10;;;;;;;-0.99;78.68;101533.71;105554;1261;98841;-77
2023/04/04 05:50:09;;;;;;;5.10;2.70;;;;;;;-0.94;78.79;101530.25;105310;1259;98332;-76
2023/04/04 05:52:56;;;;;;;6.40;3.00;;;;;;;-0.92;78.41;101527.36;105234;1258;98474;-75
2023/04/04 05:55:41;;;;;;;9.60;3.70;;;;;;;-0.92;78.56;101525.42;105336;1257;102220;-78
2023/04/04 05:58:26;;;;;;;7.10;2.90;;;;;;;-0.88;78.75;101525.70;105436;1254;99070;-77
2023/04/04 06:01:13;;;;;;;11.80;3.80;;;;;;;-0.82;78.87;101524.44;105215;1255;99893;-77
2023/04/04 06:03:59;;;;;;;11.50;3.80;;;;;;;-0.71;79.12;101524.88;105268;1259;98639;-77
2023/04/04 06:06:45;;;;;;;7.10;2.90;;;;;;;-0.61;79.22;101520.04;105426;1257;97796;-77
2023/04/04 06:09:31;;;;;;;14.80;3.50;;;;;;;-0.57;78.80;101517.70;105518;1260;101385;-76
2023/04/04 06:12:17;;;;;;;8.10;3.40;;;;;;;-0.54;78.75;101520.27;105375;1253;99286;-76
2023/04/04 06:15:04;;;;;;;9.80;3.80;;;;;;;-0.48;78.65;101519.93;105199;1261;99129;-77
2023/04/04 06:17:50;;;;;;;8.00;3.30;;;;;;;-0.43;78.64;101519.27;105263;1253;98067;-77
2023/04/04 06:20:35;;;;;;;5.70;2.90;;;;;;;-0.41;78.30;101518.78;105458;1258;98358;-75
2023/04/04 06:23:21;;;;;;;8.80;3.00;;;;;;;-0.39;78.33;101516.38;105306;1260;103558;-77
2023/04/04 06:26:09;;;;;;;9.90;3.10;;;;;;;-0.37;78.31;101513.95;105337;1256;99053;-77
2023/04/04 06:28:56;;;;;;;9.60;3.40;;;;;;;-0.34;78.32;101514.83;105317;1261;97952;-77
2023/04/04 06:31:46;;;;;;;6.50;3.20;;;;;;;-0.29;78.30;101515.91;105344;1258;98014;-76
2023/04/04 06:34:37;;;;;;;9.70;3.80;;;;;;;-0.19;78.63;101514.44;105234;1260;98502;-76
2023/04/04 06:37:23;;;;;;;7.10;3.20;;;;;;;-0.13;78.43;101514.74;105255;1260;102398;-77
2023/04/04 06:40:18;;;;;;;7.90;3.80;;;;;;;-0.09;78.29;101515.35;105393;1258;100371;-76
2023/04/04 06:43:04;;;;;;;8.60;3.00;;;;;;;-0.03;78.18;101515.13;105326;1255;98003;-76
2023/04/04 06:46:03;;;;;;;9.70;2.90;;;;;;;0.08;78.09;101518.30;105410;1257;97968;-77
2023/04/04 06:48:49;;;;;;;6.50;2.50;;;;;;;0.19;77.81;101518.13;105542;1255;98400;-76
2023/04/04 06:51:36;;;;;;;6.30;2.80;;;;;;;0.21;77.74;101513.95;105655;1258;102632;-78
2023/04/04 06:54:22;;;;;;;8.10;3.10;;;;;;;0.28;77.73;101512.63;105422;1255;99099;-77
2023/04/04 06:57:07;;;;;;;11.10;2.80;;;;;;;0.39;77.70;101509.45;105474;1259;98058;-76
2023/04/04 06:59:52;;;;;;;5.40;2.50;;;;;;;0.51;77.63;101508.95;105395;1260;99138;-77
2023/04/04 07:02:38;;;;;;;10.90;3.20;;;;;;;0.65;77.79;101508.40;105612;1260;99877;-79
2023/04/04 07:05:24;;;;;;;9.60;3.20;;;;;;;0.74;77.19;101506.89;105251;1253;101355;-76
2023/04/04 07:08:10;;;;;;;10.40;3.30;;;;;;;0.73;76.47;101509.41;105339;1254;99991;-77
2023/04/04 07:10:55;;;;;;;5.20;2.90;;;;;;;0.66;75.73;101513.74;105281;1253;97975;-78
2023/04/04 07:13:41;;;;;;;6.70;2.90;;;;;;;0.58;75.62;101509.02;105271;1261;99260;-77
2023/04/04 07:16:27;;;;;;;8.50;2.90;;;;;;;0.57;75.95;101508.07;105300;1256;97876;-76
2023/04/04 07:19:12;;;;;;;6.40;2.90;;;;;;;0.60;76.04;101510.64;105500;1256;101889;-78
2023/04/04 07:21:57;;;;;;;8.60;3.20;;;;;;;0.68;76.47;101509.23;105345;1260;100688;-77
2023/04/04 07:24:43;;;;;;;6.80;3.40;;;;;;;0.83;76.25;101511.39;105261;1259;98317;-76
2023/04/04 07:27:29;;;;;;;5.20;2.70;;;;;;;0.97;76.16;101508.00;105184;1258;97904;-76
2023/04/04 07:30:15;;;;;;;10.70;2.60;;;;;;;1.13;76.37;101500.92;105372;1260;98487;-76
2023/04/04 07:33:02;;;;;;;7.50;3.50;;;;;;;1.30;75.67;101499.05;105487;1259;102587;-77
2023/04/04 07:35:47;;;;;;;8.40;2.70;;;;;;;1.39;74.91;101501.21;105464;1257;99687;-77
2023/04/04 07:38:33;;;;;;;10.40;2.90;;;;;;;1.41;74.16;101500.34;105588;1254;98994;-77
2023/04/04 07:41:20;;;;;;;7.30;2.70;;;;;;;1.42;73.76;101497.09;105294;1257;98074;-76
2023/04/04 07:44:05;;;;;;;8.80;3.60;;;;;;;1.48;73.72;101493.70;105475;1259;99836;-77
2023/04/04 07:46:50;;;;;;;9.10;3.20;;;;;;;1.48;73.62;101493.16;105318;1255;102606;-77
2023/04/04 07:49:36;;;;;;;7.60;2.50;;;;;;;1.46;73.25;101497.87;105384;1253;99054;-79
2023/04/04 07:52:21;;;;;;;7.80;3.10;;;;;;;1.36;72.19;101498.09;105439;1260;98467;-78
2023/04/04 07:55:07;;;;;;;5.40;2.50;;;;;;;1.23;71.25;101498.26;105427;1260;98072;-75
2023/04/04 07:57:53;;;;;;;10.40;3.30;;;;;;;1.13;71.11;101495.65;105387;1258;97935;-76
2023/04/04 08:00:39;;;;;;;4.80;2.70;;;;;;;1.14;71.64;101487.84;105338;1254;102928;-77
2023/04/04 08:03:24;;;;;;;4.20;2.30;;;;;;;1.25;72.00;101484.60;105374;1256;99997;-78
2023/04/04 08:06:10;;;;;;;8.30;2.40;;;;;;;1.38;70.24;101481.77;105414;1260;98628;-78
2023/04/04 08:08:55;;;;;;;6.70;2.20;;;;;;;1.40;69.46;101477.03;105376;1261;98095;-77
2023/04/04 08:11:41;;;;;;;5.80;2.50;;;;;;;1.40;69.36;101472.80;105365;1257;98532;-76
2023/04/04 08:14:27;;;;;;;4.40;2.70;;;;;;;1.52;70.04;101467.34;105468;1257;101334;-76
2023/04/04 08:17:13;;;;;;;6.20;2.80;;;;;;;1.67;70.13;101465.27;105407;1257;99256;-77
2023/04/04 08:19:59;;;;;;;5.30;2.90;;;;;;;1.86;70.77;101463.48;105506;1256;98451;-78
2023/04/04 08:22:44;;;;;;;6.60;2.30;;;;;;;1.95;69.66;101460.71;105640;1254;99170;-79
2023/04/04 08:25:30;;;;;;;5.90;2.80;;;;;;;1.83;68.56;101462.29;105635;1257;99694;-78
2023/04/04 08:28:15;;;;;;;4.40;2.50;;;;;;;1.68;68.17;101460.81;105703;1255;101299;-77
2023/04/04 08:31:03;;;;;;;5.90;2.30;;;;;;;1.67;68.61;101461.38;105475;1256;99173;-78
2023/04/04 08:33:48;;;;;;;3.00;1.80;;;;;;;1.90;69.24;101457.23;105584;1253;107075;-78
2023/04/04 08:36:34;;;;;;;6.80;2.60;;;;;;;2.06;68.16;101459.58;105582;1254;97975;-78
2023/04/04 08:39:20;;;;;;;5.50;2.00;;;;;;;2.19;67.91;101454.02;105573;1258;98489;-78
2023/04/04 08:42:08;;;;;;;4.10;2.30;;;;;;;2.36;67.21;101453.67;105606;1258;101380;-78
2023/04/04 08:44:58;;;;;;;7.70;1.90;;;;;;;2.40;65.52;101456.87;105677;1258;99768;-79
2023/04/04 08:47:47;;;;;;;4.80;1.60;;;;;;;2.39;64.89;101451.71;105691;1258;99023;-78
2023/04/04 08:50:36;;;;;;;3.80;2.10;;;;;;;2.49;64.99;101449.50;105720;1256;98053;-79
2023/04/04 08:53:22;;;;;;;5.60;1.70;;;;;;;2.70;66.37;101440.64;106569;1255;98057;-76
2023/04/04 08:56:09;;;;;;;3.20;1.70;;;;;;;2.91;66.55;101441.36;105512;1260;102616;-77
2023/04/04 08:58:54;;;;;;;2.70;1.70;;;;;;;2.95;65.08;101441.39;105415;1257;99215;-77
2023/04/04 09:01:40;;;;;;;6.80;1.80;;;;;;;2.84;63.87;101443.64;105588;1258;97948;-77
2023/04/04 09:04:27;;;;;;;3.60;1.60;;;;;;;2.73;63.65;101447.11;105480;1256;97918;-76
2023/04/04 09:07:14;;;;;;;6.50;1.80;;;;;;;2.70;63.57;101443.65;105500;1257;98407;-76
2023/04/04 09:10:01;;;;;;;3.70;1.90;;;;;;;2.83;64.18;101440.73;105253;1258;101383;-77
2023/04/04 09:12:47;;;;;;;3.10;1.70;;;;;;;3.01;63.81;101442.29;105295;1258;100320;-76
2023/04/04 09:15:37;;;;;;;4.20;2.30;;;;;;;3.05;63.80;101437.19;105470;1255;97945;-78
2023/04/04 09:18:22;;;;;;;9.00;2.80;;;;;;;3.10;63.58;101435.42;105640;1261;98061;-77
2023/04/04 09:21:10;;;;;;;2.40;1.80;;;;;;;3.15;62.93;101443.70;105366;1256;98427;-77
2023/04/04 09:24:00;;;;;;;3.50;2.20;;;;;;;3.10;62.28;101442.46;105491;1259;102374;-78
2023/04/04 09:26:51;;;;;;;5.50;2.10;;;;;;;3.04;62.73;101442.95;105261;1262;99134;-76
2023/04/04 09:29:38;;;;;;;;;;;;;;;3.01;62.92;101439.98;105451;1257;97743;-76
2023/04/04 09:32:24;;;;;;;6.70;2.30;;;;;;;2.96;62.06;101442.17;105335;1260;97970;-76
2023/04/04 09:35:12;;;;;;;4.80;2.20;;;;;;;2.86;61.37;101441.02;105459;1258;99800;-76
2023/04/04 09:37:58;;;;;;;6.00;2.20;;;;;;;2.90;62.09;101435.77;105482;1259;102649;-76
2023/04/04 09:40:43;;;;;;;6.00;1.90;;;;;;;2.95;61.48;101434.73;105540;1257;100057;-77
2023/04/04 09:43:29;;;;;;;3.70;1.90;;;;;;;2.92;61.31;101438.39;105197;1259;98971;-77
2023/04/04 09:46:18;;;;;;;5.90;2.30;;;;;;;2.86;61.71;101436.23;105136;1257;97987;-76
2023/04/04 09:49:04;;;;;;;8.60;2.70;;;;;;;2.82;62.32;101440.58;105324;1256;99569;-77
2023/04/04 09:51:55;;;;;;;4.60;1.90;;;;;;;2.81;61.76;101444.42;105311;1259;101455;-76
2023/04/04 09:54:41;;;;;;;4.40;1.60;;;;;;;2.74;60.40;101445.45;105312;1258;100294;-77
2023/04/04 09:57:28;;;;;;;6.00;1.70;;;;;;;2.68;59.82;101446.65;105335;1259;99451;-76
2023/04/04 10:00:19;;;;;;;3.20;1.80;;;;;;;2.67;59.79;101441.74;105268;1257;98055;-78
2023/04/04 10:03:05;;;;;;;3.00;1.70;;;;;;;2.72;59.83;101443.19;105321;1258;97910;-77
2023/04/04 10:06:04;;;;;;;4.30;2.00;;;;;;;2.72;60.44;101441.40;105284;1256;101335;-77
2023/04/04 10:08:50;;;;;;;5.60;3.80;;;;;;;2.71;60.61;101445.91;105256;1261;99185;-77
2023/04/04 10:11:37;;;;;;;4.80;1.70;;;;;;;2.66;60.43;101445.56;105192;1262;98968;-78
2023/04/04 10:14:33;;;;;;;6.00;2.00;;;;;;;2.63;60.25;101443.83;105318;1257;98056;-77
2023/04/04 10:17:20;;;;;;;5.00;1.90;;;;;;;2.62;59.85;101439.72;105537;1258;98587;-77
2023/04/04 10:20:10;;;;;;;2.60;1.90;;;;;;;2.62;59.58;101437.23;105374;1259;102416;-77
2023/04/04 10:22:55;;;;;;;4.30;1.80;;;;;;;2.65;59.81;101437.21;105275;1258;100424;-76
2023/04/04 10:25:41;;;;;;;3.10;1.70;;;;;;;2.70;59.93;101435.56;105383;1258;98824;-76
2023/04/04 10:28:27;;;;;;;5.70;2.10;;;;;;;2.72;59.60;101436.66;105348;1259;98010;-75
2023/04/04 10:31:24;;;;;;;2.90;1.90;;;;;;;2.70;59.53;101443.17;105314;1258;98494;-76
2023/04/04 10:34:16;;;;;;;5.60;2.50;;;;;;;2.64;59.56;101441.67;105220;1260;103346;-75
2023/04/04 10:37:15;;;;;;;3.20;1.80;;;;;;;2.64;59.40;101443.99;105387;1258;99118;-76
2023/04/04 10:40:15;;;;;;;3.80;2.00;;;;;;;2.61;59.16;101440.86;105545;1259;97981;-78
2023/04/04 10:43:02;;;;;;;7.30;2.00;;;;;;;2.55;58.93;101438.51;105605;1262;97860;-77
2023/04/04 10:45:48;;;;;;;7.20;2.40;;;;;;;2.50;58.95;101441.86;105624;1255;98021;-78
2023/04/04 10:48:35;;;;;;;4.60;2.30;;;;;;;2.50;59.03;101448.59;105650;1259;102249;-79
2023/04/04 10:51:21;;;;;;;4.00;2.10;;;;;;;2.51;58.71;101442.84;105590;1261;99062;-78
2023/04/04 10:54:07;;;;;;;3.00;1.90;;;;;;;2.55;58.61;101439.14;105438;1259;98926;-77
2023/04/04 10:56:59;;;;;;;2.80;1.60;;;;;;;2.59;58.34;101437.30;105414;1254;98826;-77
2023/04/04 11:00:00;;;;;;;2.30;1.50;;;;;;;2.63;58.45;101430.42;105552;1253;97963;-77
2023/04/04 11:02:53;;;;;;;;;;;;;;;2.71;58.29;101430.73;105281;1256;101314;-77
2023/04/04 11:05:40;;;;;;;4.00;1.50;;;;;;;2.77;57.89;101427.61;105184;1253;100349;-78
2023/04/04 11:08:27;;;;;;;2.80;1.40;;;;;;;2.84;57.84;101423.92;105693;1261;97987;-78
2023/04/04 11:11:12;;;;;;;4.60;2.20;;;;;;;2.91;57.73;101424.20;105686;1259;96586;-77
2023/04/04 11:14:03;;;;;;;2.40;1.60;;;;;;;2.96;57.63;101425.94;105544;1260;97884;-78
2023/04/04 11:16:50;;;;;;;3.70;1.90;;;;;;;2.98;57.54;101425.08;105381;1259;101370;-76
2023/04/04 11:19:39;;;;;;;4.10;1.90;;;;;;;2.96;57.77;101427.00;105361;1259;99660;-75
2023/04/04 11:22:24;;;;;;;2.60;1.60;;;;;;;2.89;57.55;101429.01;105397;1254;99278;-76
2023/04/04 11:25:36;;;;;;;5.80;1.90;;;;;;;2.82;57.95;101425.23;105383;1259;98630;-78
2023/04/04 11:28:26;;;;;;;3.10;2.00;;;;;;;2.81;58.17;101426.05;105209;1255;98526;-76
2023/04/04 11:31:17;;;;;;;3.70;1.70;;;;;;;2.79;58.14;101425.55;105523;1258;103115;-75
2023/04/04 11:34:04;;;;;;;3.40;1.90;;;;;;;2.75;57.91;101422.09;105291;1258;99266;-75
2023/04/04 11:36:51;;;;;;;3.40;1.60;;;;;;;2.74;58.28;101422.92;105246;1254;99151;-76
2023/04/04 11:39:49;;;;;;;3.90;1.70;;;;;;;2.78;58.58;101425.37;105306;1260;98045;-76
2023/04/04 11:42:37;;;;;;;4.80;3.10;;;;;;;2.81;58.31;101427.66;105290;1255;98445;-77
2023/04/04 11:45:25;;;;;;;7.50;1.60;;;;;;;2.79;58.25;101424.48;105197;1258;102588;-76
2023/04/04 11:48:15;;;;;;;3.40;1.80;;;;;;;2.79;58.53;101426.39;105642;1258;100076;-75
2023/04/04 11:51:02;;;;;;;4.50;2.10;;;;;;;2.81;58.70;101424.66;105688;1268;98502;-77
2023/04/04 11:53:48;;;;;;;2.20;1.60;;;;;;;2.80;58.54;101423.98;105553;1262;97740;-75
2023/04/04 11:56:35;;;;;;;4.20;2.00;;;;;;;2.80;58.12;101424.73;105561;1253;98391;-77
2023/04/04 11:59:21;;;;;;;2.10;1.90;;;;;;;2.79;58.01;101420.77;106592;1258;101308;-77
2023/04/04 12:02:08;;;;;;;2.30;1.70;;;;;;;2.79;58.54;101417.61;105585;1261;99185;-76
2023/04/04 12:04:55;;;;;;;5.10;1.90;;;;;;;2.79;58.59;101421.64;105434;1256;97929;-77
2023/04/04 12:07:41;;;;;;;4.40;2.40;;;;;;;2.78;59.02;101418.55;105373;1259;97949;-77
2023/04/04 12:10:30;;;;;;;4.30;2.10;;;;;;;2.77;58.93;101416.10;105372;1256;98538;-76
2023/04/04 12:13:16;;;;;;;4.50;2.30;;;;;;;2.79;59.32;101410.34;105190;1256;101314;-77
2023/04/04 12:16:01;;;;;;;3.40;2.40;;;;;;;2.83;59.98;101413.56;105211;1256;99276;-75
2023/04/04 12:18:48;;;;;;;4.70;2.00;;;;;;;2.89;59.64;101410.13;105336;1271;98948;-76
2023/04/04 12:21:34;;;;;;;6.10;3.20;;;;;;;2.88;58.85;101411.92;105268;1261;97900;-77
2023/04/04 12:24:19;;;;;;;4.50;1.80;;;;;;;2.83;58.29;101412.86;105392;1256;97885;-80
2023/04/04 12:27:06;;;;;;;3.10;1.70;;;;;;;2.77;58.16;101412.98;105548;1255;103808;-77
2023/04/04 12:29:51;;;;;;;5.10;1.60;;;;;;;2.75;58.45;101417.53;105502;1258;99001;-75
2023/04/04 12:32:37;;;;;;;4.70;2.10;;;;;;;2.79;58.85;101417.77;105376;1260;99454;-76
2023/04/04 12:35:22;;;;;;;5.40;2.60;;;;;;;2.83;59.24;101418.29;105309;1260;98730;-77
2023/04/04 12:38:15;;;;;;;3.20;1.90;;;;;;;2.88;59.15;101409.98;105443;1259;98422;-77
2023/04/04 12:41:01;;;;;;;3.80;1.70;;;;;;;2.92;59.14;101399.97;105252;1258;103114;-77
2023/04/04 12:43:47;;;;;;;3.40;2.20;;;;;;;2.94;59.26;101395.91;105228;1259;99784;-77
2023/04/04 12:46:38;;;;;;;4.20;2.30;;;;;;;3.00;59.77;101398.13;105192;1259;99015;-76
2023/04/04 12:49:28;;;;;;;4.20;2.10;;;;;;;3.05;59.57;101397.00;105281;1259;97977;-78
2023/04/04 12:52:32;;;;;;;7.60;2.20;;;;;;;3.06;59.20;101398.02;105347;1260;97861;-76